createdAt,value
2023-04-16T00:03:14.007Z,26.22
2023-04-16T00:07:13.785Z,26.18
2023-04-16T00:11:13.541Z,26.18
2023-04-16T00:15:13.638Z,26.22
2023-04-16T00:19:13.813Z,26.26
2023-04-16T00:23:14.293Z,26.21
2023-04-16T00:27:15.283Z,26.25
2023-04-16T00:31:14.105Z,26.23
2023-04-16T00:35:14.318Z,26.25
2023-04-16T00:39:14.290Z,26.25
2023-04-16T00:43:14.833Z,26.29
2023-04-16T00:47:14.968Z,26.25
2023-04-16T00:51:14.509Z,26.25
2023-04-16T00:55:14.820Z,26.28
2023-04-16T00:59:15.328Z,26.26
2023-04-16T01:03:14.914Z,26.27
2023-04-16T01:07:14.866Z,26.25
2023-04-16T01:11:14.888Z,26.27
2023-04-16T01:15:15.369Z,26.25
2023-04-16T01:19:15.095Z,26.23
2023-04-16T01:23:15.313Z,26.22
2023-04-16T01:27:15.359Z,26.24
2023-04-16T01:31:15.399Z,26.15
2023-04-16T01:35:15.842Z,26.18
2023-04-16T01:39:16.864Z,26.18
2023-04-16T01:43:15.840Z,26.22
2023-04-16T01:47:18.928Z,26.19
2023-04-16T01:51:15.730Z,26.19
2023-04-16T01:55:15.841Z,26.21
2023-04-16T01:59:15.686Z,26.25
2023-04-16T02:03:15.964Z,26.22
2023-04-16T02:07:15.875Z,26.25
2023-04-16T02:11:15.516Z,26.21
2023-04-16T02:15:15.838Z,26.22
2023-04-16T02:19:15.455Z,26.21
2023-04-16T02:23:16.853Z,26.23
2023-04-16T02:27:15.399Z,26.25
2023-04-16T02:31:15.400Z,26.27
2023-04-16T02:35:15.352Z,26.25
2023-04-16T02:39:15.380Z,26.26
2023-04-16T02:43:15.356Z,26.27
2023-04-16T02:47:15.189Z,26.29
2023-04-16T02:51:15.152Z,26.26
2023-04-16T02:55:15.344Z,26.29
2023-04-16T02:59:15.368Z,26.22
2023-04-16T03:03:15.384Z,26.25
2023-04-16T03:07:15.005Z,26.26
2023-04-16T03:11:14.956Z,26.23
2023-04-16T03:15:15.355Z,26.25
2023-04-16T03:19:15.356Z,26.22
2023-04-16T03:23:14.870Z,26.22
2023-04-16T03:27:14.931Z,26.30
2023-04-16T03:31:15.412Z,26.25
2023-04-16T03:35:15.124Z,26.26
2023-04-16T03:39:15.401Z,26.26
2023-04-16T03:43:15.405Z,26.23
2023-04-16T03:47:15.352Z,26.25
2023-04-16T03:51:15.450Z,26.32
2023-04-16T03:55:15.881Z,26.26
2023-04-16T03:59:15.892Z,26.29
2023-04-16T04:03:16.147Z,26.23
2023-04-16T04:07:15.779Z,26.26
2023-04-16T04:11:15.875Z,26.25
2023-04-16T04:15:15.998Z,26.22
2023-04-16T04:19:16.057Z,26.29
2023-04-16T04:23:16.159Z,26.23
2023-04-16T04:27:16.219Z,26.29
2023-04-16T04:31:16.347Z,26.28
2023-04-16T04:35:16.918Z,26.23
2023-04-16T04:39:16.894Z,26.26
2023-04-16T04:43:16.534Z,26.29
2023-04-16T04:47:17.393Z,26.34
2023-04-16T04:51:16.747Z,26.36
2023-04-16T04:55:16.914Z,26.30
2023-04-16T04:59:16.896Z,26.25
2023-04-16T05:03:16.970Z,26.29
2023-04-16T05:07:17.416Z,26.22
2023-04-16T05:11:17.130Z,26.29
2023-04-16T05:15:17.425Z,26.22
2023-04-16T05:19:17.451Z,26.26
2023-04-16T05:23:17.337Z,26.25
2023-04-16T05:27:18.431Z,26.25
2023-04-16T05:31:17.589Z,26.26
2023-04-16T05:35:17.971Z,26.26
2023-04-16T05:39:17.889Z,26.26
2023-04-16T05:43:17.732Z,26.27
2023-04-16T05:47:17.973Z,26.25
2023-04-16T05:51:17.889Z,26.25
2023-04-16T05:55:18.425Z,26.29
2023-04-16T05:59:18.446Z,26.25
2023-04-16T06:03:18.308Z,26.26
2023-04-16T06:07:18.428Z,26.30
2023-04-16T06:11:18.307Z,26.28
2023-04-16T06:15:18.452Z,26.29
2023-04-16T06:19:18.520Z,26.30
2023-04-16T06:23:18.609Z,26.36
2023-04-16T06:27:18.691Z,26.31
2023-04-16T06:31:18.809Z,26.31
2023-04-16T06:35:18.937Z,26.33
2023-04-16T06:39:18.969Z,26.35
2023-04-16T06:43:19.069Z,26.36
2023-04-16T06:47:19.457Z,26.33
2023-04-16T06:51:19.323Z,26.34
2023-04-16T06:55:19.460Z,26.36
2023-04-16T06:59:19.395Z,26.40
2023-04-16T07:03:20.082Z,26.39
2023-04-16T07:07:19.562Z,26.36
2023-04-16T07:11:19.950Z,26.36
2023-04-16T07:15:20.007Z,26.37
2023-04-16T07:19:19.820Z,26.39
2023-04-16T07:23:19.972Z,26.36
2023-04-16T07:27:20.004Z,26.39
2023-04-16T07:31:20.461Z,26.34
2023-04-16T07:35:20.486Z,26.37
2023-04-16T07:39:20.258Z,26.41
2023-04-16T07:43:20.474Z,26.36
2023-04-16T07:47:20.459Z,26.36
2023-04-16T07:51:20.965Z,26.36
2023-04-16T07:55:20.978Z,26.40
2023-04-16T07:59:23.676Z,26.32
2023-04-16T08:03:21.093Z,26.39
2023-04-16T08:07:20.583Z,26.40
2023-04-16T08:11:20.989Z,26.36
2023-04-16T08:15:20.497Z,26.37
2023-04-16T08:19:20.954Z,26.36
2023-04-16T08:23:20.485Z,26.37
2023-04-16T08:27:20.572Z,26.41
2023-04-16T08:31:20.586Z,26.33
2023-04-16T08:35:20.335Z,26.39
2023-04-16T08:39:20.291Z,26.36
2023-04-16T08:43:20.497Z,26.41
2023-04-16T08:47:20.283Z,26.40
2023-04-16T08:51:20.484Z,26.34
2023-04-16T08:55:20.154Z,26.35
2023-04-16T08:59:20.107Z,26.36
2023-04-16T09:03:20.656Z,26.33
2023-04-16T09:07:20.135Z,26.39
2023-04-16T09:11:20.499Z,26.42
2023-04-16T09:15:20.312Z,26.36
2023-04-16T09:19:20.491Z,26.39
2023-04-16T09:23:20.496Z,26.40
2023-04-16T09:27:21.001Z,26.41
2023-04-16T09:31:21.029Z,26.45
2023-04-16T09:35:20.775Z,26.47
2023-04-16T09:39:20.976Z,26.43
2023-04-16T09:43:20.946Z,26.44
2023-04-16T09:47:21.589Z,26.43
2023-04-16T09:51:21.147Z,26.41
2023-04-16T09:55:21.500Z,26.44
2023-04-16T09:59:21.328Z,26.44
2023-04-16T10:03:21.635Z,26.47
2023-04-16T10:07:21.532Z,26.43
2023-04-16T10:11:21.693Z,26.46
2023-04-16T10:15:21.697Z,26.47
2023-04-16T10:19:21.993Z,26.48
2023-04-16T10:23:21.926Z,26.47
2023-04-16T10:27:22.014Z,26.50
2023-04-16T10:31:22.145Z,26.45
2023-04-16T10:35:22.527Z,26.50
2023-04-16T10:39:22.366Z,26.50
2023-04-16T10:43:22.534Z,26.51
2023-04-16T10:47:23.036Z,26.51
2023-04-16T10:51:22.697Z,26.50
2023-04-16T10:55:23.038Z,26.54
2023-04-16T10:59:23.030Z,26.55
2023-04-16T11:03:23.180Z,26.59
2023-04-16T11:07:23.122Z,26.55
2023-04-16T11:11:23.243Z,26.62
2023-04-16T11:15:23.574Z,26.59
2023-04-16T11:19:23.551Z,26.62
2023-04-16T11:23:23.615Z,26.57
2023-04-16T11:27:24.069Z,26.63
2023-04-16T11:31:23.820Z,26.61
2023-04-16T11:35:24.026Z,26.65
2023-04-16T11:39:24.034Z,26.59
2023-04-16T11:43:24.531Z,26.67
2023-04-16T11:47:24.434Z,26.67
2023-04-16T11:51:24.548Z,26.62
2023-04-16T11:55:24.581Z,26.57
2023-04-16T11:59:24.677Z,26.62
2023-04-16T12:03:24.974Z,26.62
2023-04-16T12:07:24.875Z,26.57
2023-04-16T12:11:25.074Z,26.59
2023-04-16T12:15:25.581Z,26.61
2023-04-16T12:19:25.541Z,26.57
2023-04-16T12:23:25.320Z,26.60
2023-04-16T12:27:25.504Z,26.63
2023-04-16T12:31:25.605Z,26.53
2023-04-16T12:35:26.066Z,26.59
2023-04-16T12:39:25.713Z,26.55
2023-04-16T12:43:26.158Z,26.63
2023-04-16T12:47:26.004Z,26.55
2023-04-16T12:51:26.093Z,26.59
2023-04-16T12:55:26.555Z,26.56
2023-04-16T12:59:26.372Z,26.61
2023-04-16T13:03:33.748Z,26.56
2023-04-16T13:07:26.384Z,26.53
2023-04-16T13:11:26.594Z,26.63
2023-04-16T13:15:26.305Z,26.63
2023-04-16T13:19:26.575Z,26.60
2023-04-16T13:23:26.617Z,26.60
2023-04-16T13:27:26.215Z,26.55
2023-04-16T13:31:26.468Z,26.55
2023-04-16T13:35:26.602Z,26.62
2023-04-16T13:39:27.129Z,26.56
2023-04-16T13:43:26.784Z,26.56
2023-04-16T13:47:27.144Z,26.60
2023-04-16T13:51:27.099Z,26.55
2023-04-16T13:55:27.606Z,26.57
2023-04-16T13:59:27.591Z,26.56
2023-04-16T14:03:27.668Z,26.56
2023-04-16T14:07:28.085Z,26.62
2023-04-16T14:11:27.859Z,26.55
2023-04-16T14:15:28.090Z,26.60
2023-04-16T14:19:28.617Z,26.55
2023-04-16T14:23:28.319Z,26.56
2023-04-16T14:27:28.597Z,26.56
2023-04-16T14:31:28.676Z,26.57
2023-04-16T14:35:29.140Z,26.53
2023-04-16T14:39:29.098Z,26.56
2023-04-16T14:43:29.055Z,26.50
2023-04-16T14:47:29.604Z,26.48
2023-04-16T14:51:29.352Z,26.52
2023-04-16T14:55:29.651Z,26.51
2023-04-16T14:59:30.157Z,26.45
2023-04-16T15:03:29.859Z,26.51
2023-04-16T15:07:30.166Z,26.57
2023-04-16T15:11:30.076Z,26.48
2023-04-16T15:15:30.639Z,26.45
2023-04-16T15:19:30.347Z,26.48
2023-04-16T15:23:30.644Z,26.46
2023-04-16T15:27:30.620Z,26.45
2023-04-16T15:31:31.213Z,26.45
2023-04-16T15:35:30.828Z,26.49
2023-04-16T15:39:31.011Z,26.49
2023-04-16T15:43:31.112Z,26.49
2023-04-16T15:47:31.286Z,26.46
2023-04-16T15:51:31.686Z,26.46
2023-04-16T15:55:31.650Z,26.48
2023-04-16T15:59:31.637Z,26.44
2023-04-16T16:03:31.842Z,26.43
2023-04-16T16:07:32.155Z,26.48
2023-04-16T16:11:32.161Z,26.49
2023-04-16T16:15:32.222Z,26.44
2023-04-16T16:19:32.365Z,26.50
2023-04-16T16:23:32.664Z,26.48
2023-04-16T16:27:33.193Z,26.45
2023-04-16T16:31:32.883Z,26.48
2023-04-16T16:35:33.143Z,26.46
2023-04-16T16:39:33.082Z,26.48
2023-04-16T16:43:33.685Z,26.48
2023-04-16T16:47:33.644Z,26.45
2023-04-16T16:51:33.458Z,26.48
2023-04-16T16:55:33.624Z,26.46
2023-04-16T16:59:34.161Z,26.45
2023-04-16T17:03:34.001Z,26.44
2023-04-16T17:07:34.165Z,26.46
2023-04-16T17:11:34.192Z,26.42
2023-04-16T17:15:34.324Z,26.45
2023-04-16T17:19:34.703Z,26.49
2023-04-16T17:23:34.620Z,26.49
2023-04-16T17:27:35.177Z,26.45
2023-04-16T17:31:34.941Z,26.48
2023-04-16T17:35:35.078Z,26.49
2023-04-16T17:39:35.661Z,26.45
2023-04-16T17:43:35.376Z,26.48
2023-04-16T17:47:35.745Z,26.49
2023-04-16T17:51:35.661Z,26.49
2023-04-16T17:55:35.793Z,26.52
2023-04-16T17:59:35.966Z,26.49
2023-04-16T18:03:36.221Z,26.52
2023-04-16T18:07:36.208Z,26.55
2023-04-16T18:11:36.686Z,26.52
2023-04-16T18:15:36.527Z,26.52
2023-04-16T18:19:36.704Z,26.55
2023-04-16T18:23:36.799Z,26.55
2023-04-16T18:27:37.303Z,26.52
2023-04-16T18:31:37.109Z,26.56
2023-04-16T18:35:37.720Z,26.52
2023-04-16T18:39:37.708Z,26.48
2023-04-16T18:43:37.680Z,26.52
2023-04-16T18:47:37.693Z,26.53
2023-04-16T18:51:37.844Z,26.53
2023-04-16T18:55:38.214Z,26.56
2023-04-16T18:59:38.216Z,26.53
2023-04-16T19:03:38.471Z,26.52
2023-04-16T19:07:38.705Z,26.57
2023-04-16T19:11:38.523Z,26.60
2023-04-16T19:15:39.210Z,26.57
2023-04-16T19:19:39.215Z,26.55
2023-04-16T19:23:39.226Z,26.55
2023-04-16T19:27:39.195Z,26.53
2023-04-16T19:31:39.418Z,26.56
2023-04-16T19:35:39.726Z,26.60
2023-04-16T19:39:39.750Z,26.59
2023-04-16T19:43:39.687Z,26.57
2023-04-16T19:47:39.869Z,26.59
2023-04-16T19:51:39.933Z,26.59
2023-04-16T19:55:40.220Z,26.66
2023-04-16T19:59:40.275Z,26.59
2023-04-16T20:03:40.470Z,26.60
2023-04-16T20:07:40.729Z,26.67
2023-04-16T20:11:40.648Z,26.61
2023-04-16T20:15:41.232Z,26.60
2023-04-16T20:19:41.235Z,26.66
2023-04-16T20:23:41.221Z,26.60
2023-04-16T20:27:41.227Z,26.60
2023-04-16T20:31:41.336Z,26.67
2023-04-16T20:35:41.735Z,26.63
2023-04-16T20:39:41.729Z,26.67
2023-04-16T20:43:41.750Z,26.67
2023-04-16T20:47:42.290Z,26.68
2023-04-16T20:51:42.113Z,26.62
2023-04-16T20:55:42.748Z,26.62
2023-04-16T20:59:42.388Z,26.64
2023-04-16T21:03:42.654Z,26.66
2023-04-16T21:07:42.704Z,26.73
2023-04-16T21:11:43.273Z,26.67
2023-04-16T21:15:43.318Z,26.69
2023-04-16T21:19:43.137Z,26.70
2023-04-16T21:23:43.750Z,26.64
2023-04-16T21:27:43.394Z,26.70
2023-04-16T21:31:43.784Z,26.72
2023-04-16T21:35:43.713Z,26.72
2023-04-16T21:39:43.873Z,26.68
2023-04-16T21:43:44.267Z,26.71
2023-04-16T21:47:44.192Z,26.72
2023-04-16T21:51:44.774Z,26.74
2023-04-16T21:55:44.462Z,26.77
2023-04-16T21:59:44.776Z,26.71
2023-04-16T22:03:44.791Z,26.75
2023-04-16T22:07:44.805Z,26.75
2023-04-16T22:11:45.271Z,26.77
2023-04-16T22:15:45.061Z,26.75
2023-04-16T22:19:45.187Z,26.75
2023-04-16T22:23:45.775Z,26.77
2023-04-16T22:27:45.448Z,26.75
2023-04-16T22:31:45.858Z,26.78
2023-04-16T22:35:45.781Z,26.78
2023-04-16T22:39:46.258Z,26.78
2023-04-16T22:43:46.004Z,26.74
2023-04-16T22:47:46.335Z,26.78
2023-04-16T22:51:46.268Z,26.79
2023-04-16T22:55:46.429Z,26.82
2023-04-16T22:59:46.786Z,26.82
2023-04-16T23:03:46.817Z,26.81
2023-04-16T23:07:47.297Z,26.89
2023-04-16T23:11:47.306Z,26.84
2023-04-16T23:15:47.488Z,26.84
2023-04-16T23:19:47.326Z,26.82
2023-04-16T23:23:47.335Z,26.82
2023-04-16T23:27:47.465Z,26.84
2023-04-16T23:31:47.933Z,26.84
2023-04-16T23:35:47.717Z,26.88
2023-04-16T23:39:48.302Z,26.89
2023-04-16T23:43:47.925Z,26.89
2023-04-16T23:47:48.376Z,26.85
2023-04-16T23:51:48.300Z,26.81
2023-04-16T23:55:48.288Z,26.90
2023-04-16T23:59:48.864Z,26.85
